Flight Track Log - Related Links

Times and Time Zones

All times are in EDT time to prevent confusion due to time zone crossing. See the EJA831 flight status page for this flight to view local times or setup timezone preferences in your user account.

Time Position Orientation Groundspeed Altitude Reporting Facility
EDT Latitude Longitude Course Direction KTS MPH feet Rate Location/Type
Mon 05:11:48 PM 46.9342 -114.1261 273° West 157 181 6,100  Level Salt Lake Center
Mon 05:12:50 PM 46.9364 -114.1869 273° West 184 212 10,400 3,968 Climbing Salt Lake Center
Mon 05:13:52 PM 46.8797 -114.2267 206° Southwest 220 253 14,300 2,855 Climbing Salt Lake Center
Mon 05:14:54 PM 46.8092 -114.2719 204° Southwest 294 338 16,300 1,839 Climbing Salt Lake Center
Mon 05:15:56 PM 46.7164 -114.3300 203° Southwest 339 390 18,100 1,902 Climbing Salt Lake Center
Mon 05:16:57 PM 46.6239 -114.3861 203° Southwest 359 413 20,200 2,000 Climbing Salt Lake Center
Mon 05:17:59 PM 46.5397 -114.4394 204° Southwest 359 413 22,200 2,081 Climbing Salt Lake Center
Mon 05:19:01 PM 46.4536 -114.4931 203° Southwest 348 400 24,500 2,129 Climbing Salt Lake Center
Mon 05:20:03 PM 46.3489 -114.5581 203° Southwest 343 395 26,600 1,694 Climbing Salt Lake Center
Mon 05:21:05 PM 46.2586 -114.6125 203° Southwest 350 403 28,000 1,333 Climbing Salt Lake Center
Mon 05:21:42 PM 46.2028 -114.6467 203° Southwest 359 413 28,800 1,152 Climbing Salt Lake Center
Mon 05:22:44 PM 46.1106 -114.7067 204° Southwest 366 421 29,900 1,161 Climbing Salt Lake Center
Mon 05:23:46 PM 46.0114 -114.7625 201° Southwest 367 422 31,200 1,210 Climbing Salt Lake Center
Mon 05:24:48 PM 45.9161 -114.8214 203° Southwest 371 427 32,400 1,210 Climbing Salt Lake Center
Mon 05:25:50 PM 45.8200 -114.8797 203° Southwest 375 432 33,700 1,210 Climbing Salt Lake Center
Mon 05:26:52 PM 45.7258 -114.9353 202° Southwest 370 426 34,900 1,065 Climbing Salt Lake Center
Mon 05:27:54 PM 45.6142 -115.0042 203° Southwest 366 421 35,900 968 Climbing Salt Lake Center
Mon 05:28:56 PM 45.5194 -115.0594 202° Southwest 367 422 36,900 882 Climbing Salt Lake Center
Mon 05:29:36 PM 45.4625 -115.0917 202° Southwest 367 422 37,400 774 Climbing Seattle Center
Mon 05:31:00 PM 45.3319 -115.1692 203° Southwest 366 421 38,500 781 Climbing Salt Lake Center
Mon 05:32:02 PM 45.2389 -115.2264 203° Southwest 365 420 39,300 726 Climbing Salt Lake Center
Mon 05:33:04 PM 45.1467 -115.2800 202° Southwest 361 415 40,000 339 Climbing Salt Lake Center
Mon 05:34:06 PM 45.0336 -115.3458 202° Southwest 367 422 40,000  Level Salt Lake Center
Mon 05:35:08 PM 44.9369 -115.4031 203° Southwest 374 430 40,000  Level Salt Lake Center
Mon 05:36:10 PM 44.8378 -115.4608 202° Southwest 382 440 40,000  Level Salt Lake Center
Mon 05:37:12 PM 44.7386 -115.5192 203° Southwest 385 443 40,000  Level Salt Lake Center
Mon 05:38:14 PM 44.6397 -115.5778 203° Southwest 385 443 40,000  Level Salt Lake Center
Mon 05:39:16 PM 44.5383 -115.6350 202° Southwest 388 447 40,000  Level Salt Lake Center
Mon 05:40:17 PM 44.4344 -115.6936 202° Southwest 398 458 40,000  Level Salt Lake Center
Mon 05:41:19 PM 44.3117 -115.7647 203° Southwest 394 453 40,000  Level Salt Lake Center
Mon 05:42:21 PM 44.2289 -115.8544 218° Southwest 375 432 40,000  Level Salt Lake Center
Mon 05:43:23 PM 44.1514 -115.9542 223° Southwest 376 433 40,000  Level Salt Lake Center
Mon 05:44:25 PM 44.0742 -116.0517 222° Southwest 372 428 40,000  Level Salt Lake Center
Mon 05:45:27 PM 43.9967 -116.1500 222° Southwest 375 432 40,000  Level Salt Lake Center
Mon 05:46:29 PM 43.9200 -116.2475 223° Southwest 373 429 40,000  Level Salt Lake Center
Mon 05:47:31 PM 43.8433 -116.3442 222° Southwest 371 427 40,000  Level Salt Lake Center
Mon 05:48:33 PM 43.7667 -116.4389 222° Southwest 370 426 40,000  Level Salt Lake Center
Mon 05:49:35 PM 43.6753 -116.5539 222° Southwest 369 425 40,000  Level Salt Lake Center
Mon 05:50:36 PM 43.5986 -116.6486 222° Southwest 369 425 40,000  Level Salt Lake Center
Mon 05:51:38 PM 43.5219 -116.7439 222° Southwest 371 427 40,000  Level Salt Lake Center
Mon 05:52:40 PM 43.4450 -116.8378 222° Southwest 370 426 40,000  Level Salt Lake Center
Mon 05:53:42 PM 43.3678 -116.9319 222° Southwest 370 426 40,000  Level Salt Lake Center
Mon 05:54:44 PM 43.2911 -117.0264 222° Southwest 369 425 40,000  Level Salt Lake Center
Mon 05:55:46 PM 43.2144 -117.1214 222° Southwest 372 428 40,000  Level Salt Lake Center
Mon 05:56:47 PM 43.1228 -117.2317 221° Southwest 368 423 40,000  Level Salt Lake Center
Mon 05:57:49 PM 43.0461 -117.3233 221° Southwest 367 422 40,000  Level Salt Lake Center
Mon 05:58:51 PM 42.9694 -117.4158 221° Southwest 368 423 40,000  Level Salt Lake Center
Mon 05:59:53 PM 42.8908 -117.5075 221° Southwest 373 429 40,000  Level Salt Lake Center
Mon 06:00:54 PM 42.8150 -117.6003 222° Southwest 369 425 40,000  Level Salt Lake Center
Mon 06:01:56 PM 42.7383 -117.6922 221° Southwest 368 423 40,000  Level Salt Lake Center
Mon 06:02:58 PM 42.6611 -117.7842 221° Southwest 369 425 40,000  Level Salt Lake Center
Mon 06:03:59 PM 42.5639 -117.8881 218° Southwest 370 426 40,000  Level Salt Lake Center
Mon 06:05:01 PM 42.4644 -117.9461 203° Southwest 386 444 40,000  Level Salt Lake Center
Mon 06:06:03 PM 42.3672 -118.0056 204° Southwest 385 443 40,000  Level Salt Lake Center
Mon 06:07:04 PM 42.2708 -118.0644 204° Southwest 381 438 40,000  Level Salt Lake Center
Mon 06:08:06 PM 42.1694 -118.1275 205° Southwest 381 438 40,000  Level Salt Lake Center
Mon 06:09:07 PM 42.0767 -118.1819 204° Southwest 379 436 40,000  Level Salt Lake Center
Mon 06:10:09 PM 41.9700 -118.2481 205° Southwest 378 435 40,000  Level Salt Lake Center
Mon 06:11:11 PM 41.8772 -118.3033 204° Southwest 381 438 40,000  Level Salt Lake Center
Mon 06:12:12 PM 41.7689 -118.3672 204° Southwest 381 438 40,000  Level Salt Lake Center
Mon 06:13:14 PM 41.6772 -118.4225 204° Southwest 379 436 40,000  Level Salt Lake Center
Mon 06:14:16 PM 41.5833 -118.4778 204° Southwest 382 440 40,000  Level Salt Lake Center
Mon 06:15:17 PM 41.4753 -118.5419 204° Southwest 381 438 40,000  Level Salt Lake Center
Mon 06:16:19 PM 41.3819 -118.5972 204° Southwest 382 440 40,000  Level Salt Lake Center
Mon 06:17:21 PM 41.2722 -118.6617 204° Southwest 385 443 40,000  Level Salt Lake Center
Mon 06:18:22 PM 41.1781 -118.7172 204° Southwest 385 443 40,000  Level Salt Lake Center
Mon 06:19:24 PM 41.0675 -118.7825 204° Southwest 387 445 40,000  Level Salt Lake Center
Mon 06:20:25 PM 40.9742 -118.8361 203° Southwest 385 443 40,000  Level Salt Lake Center
Mon 06:21:27 PM 40.8797 -118.8911 204° Southwest 386 444 40,000  Level Salt Lake Center
Mon 06:22:29 PM 40.7689 -118.9542 203° Southwest 388 447 40,000  Level Salt Lake Center
Mon 06:23:30 PM 40.6767 -119.0081 204° Southwest 383 441 40,000  Level Salt Lake Center
Mon 06:24:32 PM 40.5639 -119.0719 203° Southwest 390 449 40,000  Level Salt Lake Center
Mon 06:25:34 PM 40.4731 -119.1247 204° Southwest 387 445 40,000  Level Salt Lake Center
Mon 06:26:35 PM 40.3756 -119.1814 204° Southwest 384 442 40,000  Level Salt Lake Center
Mon 06:27:37 PM 40.2694 -119.2122 193° South 392 451 40,000  Level Salt Lake Center
Mon 06:28:39 PM 40.1381 -119.2417 190° South 399 459 40,000  Level Salt Lake Center
Mon 06:29:40 PM 40.0292 -119.2656 190° South 398 458 40,000  Level Salt Lake Center
Mon 06:30:58 PM 39.8964 -119.2975 190° South 401 461 40,000  Level Oakland Center
Mon 06:32:00 PM 39.7847 -119.3208 189° South 407 468 40,000  Level Oakland Center
Mon 06:33:01 PM 39.6522 -119.3503 190° South 405 466 40,000  Level Oakland Center
Mon 06:34:03 PM 39.5406 -119.3742 189° South 407 468 40,000  Level Oakland Center
Mon 06:35:04 PM 39.4294 -119.3978 189° South 406 467 40,000 -293 Level Oakland Center
Mon 06:36:06 PM 39.3200 -119.4219 190° South 402 463 39,400 -1,122 Descending Oakland Center
Mon 06:37:07 PM 39.2106 -119.4461 190° South 400 460 37,700 -2,049 Descending Oakland Center
Mon 06:38:09 PM 39.1036 -119.4678 189° South 394 453 35,200 -1,805 Descending Oakland Center
Mon 06:39:10 PM 38.9961 -119.4919 190° South 394 453 34,000 -590 Descending Oakland Center
Mon 06:40:11 PM 38.8867 -119.5153 189° South 396 456 34,000 -927 Level Oakland Center
Mon 06:41:13 PM 38.7542 -119.5436 189° South 401 461 32,100 -1,854 Descending Oakland Center
Mon 06:42:14 PM 38.6422 -119.5672 189° South 406 467 30,200 -1,024 Descending Oakland Center
Mon 06:43:16 PM 38.5264 -119.5911 189° South 415 478 30,000 -98 Descending Oakland Center
Mon 06:44:17 PM 38.4022 -119.6181 190° South 420 483 30,000  Level Oakland Center
Mon 06:45:19 PM 38.2861 -119.6419 189° South 420 483 30,000  Level Oakland Center
Mon 06:46:20 PM 38.1706 -119.6672 190° South 420 483 30,000  Level Oakland Center
Mon 06:47:21 PM 38.0553 -119.6914 189° South 419 482 30,000 -732 Level Oakland Center
Mon 06:48:23 PM 37.9375 -119.7158 189° South 425 489 28,500 -1,756 Descending Oakland Center
Mon 06:49:24 PM 37.8208 -119.7414 190° South 426 490 26,400 -2,244 Descending Oakland Center
Mon 06:50:26 PM 37.7050 -119.7667 190° South 424 488 23,900 -2,488 Descending Oakland Center
Mon 06:51:27 PM 37.6228 -119.8533 220° Southwest 397 457 21,300 -1,918 Descending Oakland Center
Mon 06:52:28 PM 37.5533 -119.9481 227° Southwest 377 434 20,000 -634 Descending Oakland Center
Mon 06:53:30 PM 37.4828 -120.0456 228° Southwest 375 432 20,000  Level Oakland Center
Mon 06:54:31 PM 37.4111 -120.1419 227° Southwest 375 432 20,000 -537 Level Oakland Center
Mon 06:55:33 PM 37.3272 -120.2547 227° Southwest 370 426 18,900 -1,610 Descending Oakland Center
Mon 06:56:34 PM 37.2569 -120.3494 227° Southwest 371 427 16,700 -2,177 Descending Oakland Center
Mon 06:57:26 PM 37.2167 -120.4333 239° Southwest 384 442 14,800 -2,143 Descending Northern Cal TRACON
Mon 06:58:26 PM 37.1833 -120.5500 250° West 367 422 12,700 -1,800 Descending Northern Cal TRACON
Mon 06:59:26 PM 37.1667 -120.6667 260° West 332 382 11,200 -1,350 Descending Northern Cal TRACON
Mon 07:00:26 PM 37.1333 -120.7833 250° West 334 384 10,000 -595 Descending Northern Cal TRACON
Mon 07:01:27 PM 37.1167 -120.8833 258° West 328 377 10,000  Level Northern Cal TRACON
Mon 07:02:26 PM 37.1000 -121.0000 260° West 334 384 10,000  Level Northern Cal TRACON
Mon 07:03:26 PM 37.1000 -121.1167 270° West 332 382 10,000  Level Northern Cal TRACON
Mon 07:04:21 PM 37.0833 -121.2167 258° West 334 384 10,000 -52 Level Northern Cal TRACON
Mon 07:05:21 PM 37.0667 -121.3333 260° West 327 376 9,900 -750 Descending Northern Cal TRACON
Mon 07:06:21 PM 37.0667 -121.4333 270° West 271 312 8,500 -1,450 Descending Northern Cal TRACON
Mon 07:07:21 PM 37.0500 -121.5167 256° West 246 283 7,000 -850 Descending Northern Cal TRACON
Mon 07:08:21 PM 37.0667 -121.5833 287° West 246 283 6,800 -600 Descending Northern Cal TRACON
Mon 07:09:21 PM 37.1167 -121.6500 313° West 240 276 5,800 -1,000 Descending Northern Cal TRACON
Mon 07:09:51 PM 37.1339 -121.6778 308° West 241 277 5,300 -725 Descending Oakland Center
Mon 07:10:52 PM 37.1814 -121.7383 315° West 242 278 4,700 -878 Descending Oakland Center
Mon 07:11:54 PM 37.2311 -121.7903 320° Northwest 238 274 3,500 -1,024 Descending Oakland Center
Mon 07:12:55 PM 37.2681 -121.8292 320° Northwest 169 194 2,600 -836 Descending Oakland Center
Mon 07:13:56 PM 37.2925 -121.8547 320° Northwest 135 155 1,800 -780 Descending Oakland Center
Mon 07:14:58 PM 37.3217 -121.8853 320° Northwest 131 151 1,000 -780 Descending Oakland Center
Mon 07:15:59 PM 37.3494 -121.9178 317° Northwest 135 155 200 -787 Descending Oakland Center
Mon 07:17:00 PM 37.3500 -121.9167 North  Level FlightAware Approximate
Mon 07:24:00 PM 37.3627 -121.9291 North  Level Estimated

Login

Don't have an account? Register now (free) for customized features, flight alerts, and more!